Arivaca, AZ (85601)

1:45 AM MST on October 24, 2014 (GMT -0700)
TrailsHead at Barrio de Tubac | Change Station
CLOSE
Current Station
Personal Weather Station
Location: Tubac, AZ
Elevation: 3222 ft
Nearby Weather Stations

Elev 3222 ft 31.60 °N, 111.05 °W | Updated 15 seconds ago

Clear
Clear
54.2 °F
Feels Like 54.2 °F
N
4.2
Wind Variable Wind from SSE
Gusts 4.2 mph

Today
High -- | Low -- °F
--% Chance of Precip.
Yesterday
High -- | Low -- °F
Precip. -- in
6:35 AM 5:43 PM
New Moon, 0% visible
Pressure 29.99 in
Visibility 10.0 miles
Clouds Clear
Dew Point 47 °F
Humidity 78%
Rainfall 0.00 in
Snow Depth Not available.
UV 0 out of 12
Pollen 5.60 out of 12
Air Quality Not available.
Flu Activity No Activity
METAR KOLS 240754Z AUTO 00000KT 10SM CLR 14/07 A3016 RMK AO2 SLP153 T01390072

More Conditions Fewer Conditions

Pressure 29.99 in
Visibility 10.0 miles
Clouds Clear
Dew Point 47 °F
Humidity 78%
Rainfall 0.00 in
Snow Depth Not available.
UV 0 out of 12
Pollen 5.60 out of 12
Air Quality Not available.
Flu Activity No Activity
METAR KOLS 240754Z AUTO 00000KT 10SM CLR 14/07 A3016 RMK AO2 SLP153 T01390072

More Conditions Fewer Conditions

10-Day Weather Forecast

Almanac

Astronomy

Oct. 24, 2014 Rise Set
Actual Time 6:35 AM MST 5:43 PM MST
Civil Twilight 6:10 AM MST 6:08 PM MST
Nautical Twilight 5:41 AM MST 6:36 PM MST
Astronomical Twilight 5:13 AM MST 7:04 PM MST
Moon 7:15 AM MST 6:29 PM MST
Length of Visible Light 11h 57m
Length of Day
11h 08m
Tomorrow will be 1m 46s shorter.
New Moon, 0% of the Moon is Illuminated
Today
New Moon
Oct 30
First Quarter
Nov 6
Full
Nov 14
Last Quarter
Nov 22
New

Today's Extremes

State Highs State Lows

Community

WunderPhotos

Upload Photos

1,764,511 photos uploaded!

WunderBlogs® & News

Nearby

Snow Depth

Station Depth Elevation
Workman Creek 0 in 6900 ft
Wildcat 0 in 7850 ft
Hannagan Meadows 0 in 9020 ft
Beaver Head 1 in 7990 ft
Promontory 0 in 7930 ft

Earthquake Activity

City Distance Mag. Time & Date
No recent earthquake activity has been reported nearby.
Minimum magnitude displayed is 2.5.

Coastal Water Temperatures

Place Temperature
No Stations Reporting

Nearby Weather Stations